地図

経路データ

SID SEASON NUMBER BASIN SUBBASIN NAME ISO_TIME NATURE LAT LON WMO_WIND WMO_PRES WMO_AGENCY TRACK_TYPE DIST2LAND LANDFALL IFLAG USA_AGENCY USA_ATCF_ID USA_LAT USA_LON USA_RECORD USA_STATUS USA_WIND USA_PRES USA_SSHS USA_R34_NE USA_R34_SE USA_R34_SW USA_R34_NW USA_R50_NE USA_R50_SE USA_R50_SW USA_R50_NW USA_R64_NE USA_R64_SE USA_R64_SW USA_R64_NW USA_POCI USA_ROCI USA_RMW USA_EYE TOKYO_LAT TOKYO_LON TOKYO_GRADE TOKYO_WIND TOKYO_PRES TOKYO_R50_DIR TOKYO_R50_LONG TOKYO_R50_SHORT TOKYO_R30_DIR TOKYO_R30_LONG TOKYO_R30_SHORT TOKYO_LAND CMA_LAT CMA_LON CMA_CAT CMA_WIND CMA_PRES HKO_LAT HKO_LON HKO_CAT HKO_WIND HKO_PRES NEWDELHI_LAT NEWDELHI_LON NEWDELHI_GRADE NEWDELHI_WIND NEWDELHI_PRES NEWDELHI_CI NEWDELHI_DP NEWDELHI_POCI REUNION_LAT REUNION_LON REUNION_TYPE REUNION_WIND REUNION_PRES REUNION_TNUM REUNION_CI REUNION_RMW REUNION_R34_NE REUNION_R34_SE REUNION_R34_SW REUNION_R34_NW REUNION_R50_NE REUNION_R50_SE REUNION_R50_SW REUNION_R50_NW REUNION_R64_NE REUNION_R64_SE REUNION_R64_SW REUNION_R64_NW BOM_LAT BOM_LON BOM_TYPE BOM_WIND BOM_PRES BOM_TNUM BOM_CI BOM_RMW BOM_R34_NE BOM_R34_SE BOM_R34_SW BOM_R34_NW BOM_R50_NE BOM_R50_SE BOM_R50_SW BOM_R50_NW BOM_R64_NE BOM_R64_SE BOM_R64_SW BOM_R64_NW BOM_ROCI BOM_POCI BOM_EYE BOM_POS_METHOD BOM_PRES_METHOD NADI_LAT NADI_LON NADI_CAT NADI_WIND NADI_PRES WELLINGTON_LAT WELLINGTON_LON WELLINGTON_WIND WELLINGTON_PRES DS824_LAT DS824_LON DS824_STAGE DS824_WIND DS824_PRES TD9636_LAT TD9636_LON TD9636_STAGE TD9636_WIND TD9636_PRES TD9635_LAT TD9635_LON TD9635_WIND TD9635_PRES TD9635_ROCI NEUMANN_LAT NEUMANN_LON NEUMANN_CLASS NEUMANN_WIND NEUMANN_PRES MLC_LAT MLC_LON MLC_CLASS MLC_WIND MLC_PRES USA_GUST BOM_GUST BOM_GUST_PER REUNION_GUST REUNION_GUST_PER USA_SEAHGT USA_SEARAD_NE USA_SEARAD_SE USA_SEARAD_SW USA_SEARAD_NW STORM_SPEED STORM_DIR
1986271N12267 1986 99 EP MM PAINE 1986-09-28 00:00:00 TS 11.5000 -93.0000 25 hurdat_epa main 325 325 O_________O___ hurdat_epa EP161986 11.5000 -93.0000 TD 25 -1 11.5000 -93.0000 1 25 16 269
1986271N12267 1986 99 EP MM PAINE 1986-09-28 03:00:00 TS 11.4923 -93.7997 main 372 372 P_________P___ EP161986 11.4930 -93.8025 TD 25 -1 11.4904 -93.7911 1 25 16 270
1986271N12267 1986 99 EP MM PAINE 1986-09-28 06:00:00 TS 11.4985 -94.5964 25 hurdat_epa main 424 424 O_________P___ hurdat_epa EP161986 11.5000 -94.6000 TD 25 -1 11.4938 -94.5857 1 25 16 271
1986271N12267 1986 99 EP MM PAINE 1986-09-28 09:00:00 TS 11.5324 -95.3912 main 477 449 P_________P___ EP161986 11.5347 -95.3925 TD 25 -1 11.5254 -95.3873 1 25 16 274
1986271N12267 1986 99 EP MM PAINE 1986-09-28 12:00:00 TS 11.6000 -96.2000 25 hurdat_epa main 449 437 O_________O___ hurdat_epa EP161986 11.6000 -96.2000 TD 25 -1 11.6000 -96.2000 1 25 16 275
1986271N12267 1986 99 EP MM PAINE 1986-09-28 15:00:00 TS 11.6791 -97.0493 main 438 438 P_________P___ EP161986 11.6624 -97.0577 TD 25 -1 11.7292 -97.0242 1 26 17 278
1986271N12267 1986 99 EP MM PAINE 1986-09-28 18:00:00 TS 11.8275 -97.8862 25 hurdat_epa main 448 441 O_________P___ hurdat_epa EP161986 11.8000 -97.9000 TD 25 -1 11.9098 -97.8449 1 27 16 284
1986271N12267 1986 99 EP MM PAINE 1986-09-28 21:00:00 TS 12.0862 -98.6707 main 447 434 P_________P___ EP161986 12.0698 -98.6799 TD 27 -1 12.1355 -98.6432 1 28 16 291
1986271N12267 1986 99 EP MM PAINE 1986-09-29 00:00:00 TS 12.4000 -99.4000 30 hurdat_epa main 438 430 O_________O___ hurdat_epa EP161986 12.4000 -99.4000 TD 30 -1 12.4000 -99.4000 1 30 15 294
1986271N12267 1986 99 EP MM PAINE 1986-09-29 03:00:00 TS 12.6871 -100.073 main 434 425 P_________P___ EP161986 12.6922 -100.065 TD 30 -1 12.6719 -100.098 1 30 14 295
1986271N12267 1986 99 EP MM PAINE 1986-09-29 06:00:00 TS 12.9953 -100.713 30 hurdat_epa main 427 413 O_________P___ hurdat_epa EP161986 13.0000 -100.700 TD 30 -1 12.9813 -100.753 1 30 14 297
1986271N12267 1986 99 EP MM PAINE 1986-09-29 09:00:00 TS 13.3324 -101.358 main 422 408 P_________P___ EP161986 13.3348 -101.350 TD 30 -1 13.3251 -101.382 1 30 14 299
1986271N12267 1986 99 EP MM PAINE 1986-09-29 12:00:00 TS 13.7000 -102.000 30 hurdat_epa main 412 392 O_________O___ hurdat_epa EP161986 13.7000 -102.000 TD 30 -1 13.7000 -102.000 1 30 15 301
1986271N12267 1986 99 EP MM PAINE 1986-09-29 15:00:00 TS 14.0866 -102.655 main 397 385 P_________P___ EP161986 14.0849 -102.658 TD 30 -1 14.0919 -102.649 1 31 15 303
1986271N12267 1986 99 EP MM PAINE 1986-09-29 18:00:00 TS 14.5030 -103.297 30 hurdat_epa main 391 369 O_________P___ hurdat_epa EP161986 14.5000 -103.300 TD 30 -1 14.5122 -103.288 1 32 15 305
1986271N12267 1986 99 EP MM PAINE 1986-09-29 21:00:00 TS 14.9446 -103.913 main 373 341 P_________P___ EP161986 14.9423 -103.915 TD 32 -1 14.9514 -103.908 1 33 15 308
1986271N12267 1986 99 EP MM PAINE 1986-09-30 00:00:00 TS 15.4000 -104.500 35 hurdat_epa main 341 322 O_________O___ hurdat_epa EP161986 15.4000 -104.500 TS 35 0 15.4000 -104.500 2 35 14 309
1986271N12267 1986 99 EP MM PAINE 1986-09-30 03:00:00 TS 15.8490 -105.070 main 327 311 P_________P___ EP161986 15.8499 -105.065 TS 35 0 15.8465 -105.082 2 35 14 310
1986271N12267 1986 99 EP MM PAINE 1986-09-30 06:00:00 TS 16.2999 -105.608 35 hurdat_epa main 315 307 O_________P___ hurdat_epa EP161986 16.3000 -105.600 TS 35 0 16.2997 -105.633 2 35 14 312
1986271N12267 1986 99 EP MM PAINE 1986-09-30 09:00:00 TS 16.7563 -106.133 main 301 293 P_________P___ EP161986 16.7575 -106.130 TS 35 0 16.7530 -106.142 2 35 13 313
1986271N12267 1986 99 EP MM PAINE 1986-09-30 12:00:00 TS 17.2000 -106.600 35 hurdat_epa main 293 284 O_________O___ hurdat_epa EP161986 17.2000 -106.600 TS 35 0 17.2000 -106.600 2 35 12 316
1986271N12267 1986 99 EP MM PAINE 1986-09-30 15:00:00 TS 17.6088 -106.983 main 291 283 P_________P___ EP161986 17.5998 -106.973 TS 37 0 17.6356 -107.013 2 43 11 320
1986271N12267 1986 99 EP MM PAINE 1986-09-30 18:00:00 TS 18.0161 -107.319 40 hurdat_epa main 283 277 O_________P___ hurdat_epa EP161986 18.0000 -107.300 TS 40 0 18.0643 -107.376 2 52 11 323
1986271N12267 1986 99 EP MM PAINE 1986-09-30 21:00:00 TS 18.4589 -107.663 main 285 278 P_________P___ EP161986 18.4499 -107.650 TS 55 0 18.4858 -107.701 2 61 11 324
1986271N12267 1986 99 EP MM PAINE 1986-10-01 00:00:00 TS 18.9000 -108.000 70 hurdat_epa main 289 289 O_________O___ hurdat_epa EP161986 18.9000 -108.000 HU 70 1 18.9000 -108.000 3 70 11 322
1986271N12267 1986 99 EP MM PAINE 1986-10-01 03:00:00 TS 19.3034 -108.365 main 308 303 P_________P___ EP161986 19.3075 -108.373 HU 70 1 19.2910 -108.341 3 71 10 321
1986271N12267 1986 99 EP MM PAINE 1986-10-01 06:00:00 TS 19.6944 -108.689 70 hurdat_epa main 322 320 O_________P___ hurdat_epa EP161986 19.7000 -108.700 HU 70 1 19.6776 -108.655 3 72 10 325
1986271N12267 1986 99 EP MM PAINE 1986-10-01 09:00:00 TS 20.0825 -108.938 main 326 277 P_________P___ EP161986 20.0849 -108.945 HU 72 1 20.0754 -108.916 3 73 9 334
1986271N12267 1986 99 EP MM PAINE 1986-10-01 12:00:00 TS 20.5000 -109.100 75 hurdat_epa main 277 232 O_________O___ hurdat_epa EP161986 20.5000 -109.100 HU 75 1 20.5000 -109.100 4 75 9 345
1986271N12267 1986 99 EP MM PAINE 1986-10-01 15:00:00 TS 20.9754 -109.191 main 221 168 P_________P___ EP161986 20.9850 -109.188 HU 77 1 20.9466 -109.200 4 77 10 354
1986271N12267 1986 99 EP MM PAINE 1986-10-01 18:00:00 TS 21.4812 -109.205 80 hurdat_epa main 168 127 O_________P___ hurdat_epa EP161986 21.5000 -109.200 HU 80 1 21.4247 -109.220 4 80 10 1
1986271N12267 1986 99 EP MM PAINE 1986-10-01 21:00:00 TS 21.9739 -109.175 main 117 83 P_________P___ EP161986 21.9850 -109.173 HU 82 1 21.9405 -109.181 4 82 10 5
1986271N12267 1986 99 EP MM PAINE 1986-10-02 00:00:00 TS 22.5000 -109.100 85 hurdat_epa main 83 46 O_________O___ hurdat_epa EP161986 22.5000 -109.100 HU 85 2 22.5000 -109.100 4 85 11 7
1986271N12267 1986 99 EP MM PAINE 1986-10-02 03:00:00 TS 23.0575 -109.042 main 52 40 P_________P___ EP161986 23.0700 -109.015 HU 82 1 23.0198 -109.122 4 83 12 7
1986271N12267 1986 99 EP MM PAINE 1986-10-02 06:00:00 TS 23.6736 -108.948 80 hurdat_epa main 60 60 O_________P___ hurdat_epa EP161986 23.7000 -108.900 HU 80 1 23.5942 -109.092 4 82 13 8
1986271N12267 1986 99 EP MM PAINE 1986-10-02 09:00:00 TS 24.3170 -108.859 main 97 23 P_________P___ EP161986 24.3321 -108.830 HU 80 1 24.2716 -108.943 4 81 15 13
1986271N12267 1986 99 EP MM PAINE 1986-10-02 12:00:00 TS 25.1000 -108.600 80 hurdat_epa main 23 0 O_________O___ hurdat_epa EP161986 25.1000 -108.600 HU 80 1 25.1000 -108.600 4 80 19 23
1986271N12267 1986 99 EP MM PAINE 1986-10-02 15:00:00 TS 26.0901 -108.044 main 0 0 P_________P___ EP161986 26.0862 -108.052 HU 52 0 26.1019 -108.022 4 52 24 29
1986271N12267 1986 99 EP MM PAINE 1986-10-02 18:00:00 TS 27.2000 -107.300 25 hurdat_epa main 0 O_________O___ hurdat_epa EP161986 27.2000 -107.300 TD 25 -1 27.2000 -107.300 1 25 26 31

IBTrACS Databaseについて

本データベースは、米国NOAAが公開する1842年以降の世界の熱帯低気圧のベストトラックデータアーカイブInternational Best Track Archive for Climate Stewardship (IBTrACS)を、ウェブで閲覧しやすい形式に変換したものです。

最終更新日:2021-12-06